This is the latest recevied weather packets stored in our database for station/object N5ZKK. If no packets are shown the sender has not sent any weather packets the latest 10 day(s).
| Time | Temp. | Humidity | Pressure | Rain* | Wind** | Luminosity | Snow |
|---|---|---|---|---|---|---|---|
| 1777745341 | 21.11° C | 53% | 1023.3 hPa | 0 mm | - | - | - |
| 1777743541 | 21.11° C | 52% | 1023.8 hPa | 0 mm | - | - | - |
| 1777741741 | 21.11° C | 54% | 1023.9 hPa | 0 mm | - | - | - |
| 1777739941 | 20.56° C | 56% | 1024.3 hPa | 0 mm | - | - | - |
| 1777738141 | 19.44° C | 59% | 1024.6 hPa | 0 mm | - | - | - |
| 1777736341 | 18.33° C | 61% | 1024.8 hPa | 0 mm | - | - | - |
| 1777734541 | 18.33° C | 58% | 1024.7 hPa | 0 mm | - | - | - |
| 1777732741 | 16.67° C | 63% | 1024.7 hPa | 0 mm | - | - | - |
| 1777730941 | 15.56° C | 73% | 1024.6 hPa | 0 mm | - | - | - |
| 1777729141 | 12.22° C | 92% | 1024.9 hPa | 0 mm | - | - | - |
| 1777727341 | 8.89° C | 99% | 1025.1 hPa | 0 mm | - | - | - |
| 1777725541 | 7.22° C | 99% | 1025.5 hPa | 0 mm | - | - | - |
| 1777723741 | 6.11° C | 99% | 1025.3 hPa | 0 mm | - | - | - |
| 1777721941 | 6.11° C | 99% | 1024.8 hPa | 0 mm | - | - | - |
| 1777720141 | 6.11° C | 99% | 1024.7 hPa | 0 mm | - | - | - |
| 1777718341 | 6.11° C | 99% | 1024.4 hPa | 0 mm | - | - | - |
| 1777716541 | 6.67° C | 99% | 1024.1 hPa | 0 mm | - | - | - |
| 1777714741 | 7.78° C | 99% | 1023.5 hPa | 0 mm | - | - | - |
| 1777712941 | 7.78° C | 99% | 1023 hPa | 0 mm | - | - | - |
| 1777711141 | 6.67° C | 99% | 1022.4 hPa | 0 mm | - | - | - |
| 1777709341 | 7.22° C | 99% | 1022.5 hPa | 0 mm | - | - | - |
| 1777707541 | 7.22° C | 99% | 1022.4 hPa | 0 mm | - | - | - |
| 1777705741 | 7.78° C | 99% | 1022.5 hPa | 0 mm | - | - | - |
| 1777703941 | 7.78° C | 99% | 1022.6 hPa | 0 mm | - | - | - |
| 1777702141 | 7.78° C | 99% | 1022.4 hPa | 0 mm | - | - | - |
* Rain latest hour (hover to see other rain measurements)
** Current wind speed in m/s (hover to see current wind gust speed)